Time;durP1;ratioP1;P1;durP2;ratioP2;P2;SDS_P1;SDS_P2;PMS_P1;PMS_P2;Temp;Humidity;BMP_temperature;BMP_pressure;BME280_temperature;BME280_humidity;BME280_pressure;Samples;Min_cycle;Max_cycle;Signal;HPM_P1;HPM_P2
2022/05/12 00:04:04;;;;;;;;;12.00;3.50;;;;;;;;2;279079354;279079354;-75
2022/05/12 00:12:47;;;;;;;;;18.00;4.00;;;;;;;;2;234071753;234071753;-75
2022/05/12 00:21:48;;;;;;;;;4.50;4.50;;;;;;;;2;279080490;279080490;-75
2022/05/12 00:30:30;;;;;;;;;0.50;0.50;;;;;;;;2;234070860;234070860;-75
2022/05/12 00:39:31;;;;;;;;;3.50;3.50;;;;;;;;2;279082065;279082065;-75
2022/05/12 00:48:13;;;;;;;;;3.50;3.50;;;;;;;;2;234070510;234070510;-75
2022/05/12 00:57:20;;;;;;;;;3.50;3.50;;;;;;;;2;279081305;279081305;-75
2022/05/12 01:06:03;;;;;;;;;3.00;3.00;;;;;;;;2;234071540;234071540;-75
2022/05/12 01:15:04;;;;;;;;;11.50;4.00;;;;;;;;2;279080935;279080935;-75
2022/05/12 01:23:48;;;;;;;;;1.00;1.00;;;;;;;;2;234072316;234072316;-75
2022/05/12 01:32:49;;;;;;;;;3.00;3.00;;;;;;;;2;279083043;279083043;-75
2022/05/12 01:41:31;;;;;;;;;3.50;3.50;;;;;;;;2;234069259;234069259;-75
2022/05/12 01:50:32;;;;;;;;;4.50;4.50;;;;;;;;2;279084040;279084040;-75
2022/05/12 02:00:35;;;;;;;;;6.00;6.00;;;;;;;;162492;30;279082380;-75
2022/05/12 02:09:17;;;;;;;;;5.00;3.00;;;;;;;;2;234068663;234068663;-75
2022/05/12 02:18:19;;;;;;;;;6.50;6.50;;;;;;;;2;279083668;279083668;-75
2022/05/12 02:27:02;;;;;;;;;11.00;8.00;;;;;;;;2;234068819;234068819;-75
2022/05/12 02:36:03;;;;;;;;;5.00;5.00;;;;;;;;2;279083347;279083347;-75
2022/05/12 02:44:45;;;;;;;;;10.00;4.50;;;;;;;;2;234068238;234068238;-74
2022/05/12 02:53:46;;;;;;;;;12.50;1.50;;;;;;;;2;279083069;279083069;-75
2022/05/12 03:02:28;;;;;;;;;1.50;1.50;;;;;;;;2;234070117;234070117;-75
2022/05/12 03:11:26;;;;;;;;;1.00;1.00;;;;;;;;2;276284847;276284847;-74
2022/05/12 03:20:09;;;;;;;;;1.00;1.00;;;;;;;;2;234070245;234070245;-75
2022/05/12 03:29:10;;;;;;;;;2.00;2.00;;;;;;;;2;279083169;279083169;-75
2022/05/12 03:31:36;;;;;;;;;3.00;3.00;;;;;;;;294889;30;135937408;-75
2022/05/12 03:34:01;;;;;;;;;2.25;2.00;;;;;;;;4734931;30;331398;-75
2022/05/12 03:36:26;;;;;;;;;3.00;2.25;;;;;;;;4691919;30;1271121;-75
2022/05/12 03:48:14;;;;;;;;;2.00;0.50;;;;;;;;655138;30;90173728;-75
2022/05/12 03:50:40;;;;;;;;;2.00;2.00;;;;;;;;1485651;30;64223800;-74
2022/05/12 03:53:05;;;;;;;;;2.00;2.00;;;;;;;;4235127;30;14189753;-75
2022/05/12 03:55:30;;;;;;;;;2.75;2.75;;;;;;;;4736356;30;29949;-75
2022/05/12 03:57:56;;;;;;;;;5.75;3.00;;;;;;;;4752613;30;29974;-75
2022/05/12 04:00:24;;;;;;;;;3.00;3.00;;;;;;;;4081292;30;20450943;-75
2022/05/12 04:02:49;;;;;;;;;6.67;4.00;;;;;;;;4687819;30;1503061;-75
2022/05/12 04:12:24;;;;;;;;;;;;;;;;;;611684;30;279080444;-75
2022/05/12 04:21:06;;;;;;;;;1.50;1.50;;;;;;;;2;234066842;234066842;-75
2022/05/12 04:30:08;;;;;;;;;2.00;2.00;;;;;;;;2;279083007;279083007;-74
2022/05/12 04:38:51;;;;;;;;;2.50;2.50;;;;;;;;2;234070199;234070199;-75
2022/05/12 04:47:51;;;;;;;;;3.50;3.50;;;;;;;;2;279082536;279082536;-75
2022/05/12 04:56:34;;;;;;;;;1.00;1.00;;;;;;;;2;234070740;234070740;-75
2022/05/12 05:05:35;;;;;;;;;0.50;0.50;;;;;;;;2;279084357;279084357;-74
2022/05/12 05:14:17;;;;;;;;;2.50;2.50;;;;;;;;2;234073925;234073925;-75
2022/05/12 05:23:21;;;;;;;;;1.00;1.00;;;;;;;;2;279082852;279082852;-75
2022/05/12 05:32:04;;;;;;;;;4.50;3.00;;;;;;;;2;234066740;234066740;-76
2022/05/12 05:41:04;;;;;;;;;1.00;1.00;;;;;;;;2;279080862;279080862;-75
2022/05/12 05:49:47;;;;;;;;;3.00;3.00;;;;;;;;2;234069953;234069953;-75
2022/05/12 05:58:48;;;;;;;;;1.00;1.00;;;;;;;;2;279081374;279081374;-76
2022/05/12 06:07:30;;;;;;;;;4.50;4.50;;;;;;;;2;234067549;234067549;-74
2022/05/12 06:16:31;;;;;;;;;4.00;2.50;;;;;;;;2;279079753;279079753;-75
2022/05/12 06:25:16;;;;;;;;;3.50;3.50;;;;;;;;2;234070926;234070926;-75
2022/05/12 06:34:17;;;;;;;;;1.50;1.50;;;;;;;;2;279079258;279079258;-75
2022/05/12 06:43:03;;;;;;;;;1.50;1.50;;;;;;;;2;234068180;234068180;-75
2022/05/12 06:52:05;;;;;;;;;3.50;3.50;;;;;;;;2;279081121;279081121;-76
2022/05/12 07:00:47;;;;;;;;;5.00;5.00;;;;;;;;2;234069360;234069360;-75
2022/05/12 07:03:24;;;;;;;;;4.00;4.00;;;;;;;;2;155991827;155991827;-76
2022/05/12 07:05:49;;;;;;;;;6.00;5.00;;;;;;;;3737359;30;11112351;-76
2022/05/12 07:08:14;;;;;;;;;8.00;6.50;;;;;;;;4735766;30;33708;-76
2022/05/12 07:12:02;;;;;;;;;;;;;;;;;;3745299;30;108195559;-76
2022/05/12 07:14:27;;;;;;;;;6.75;6.00;;;;;;;;2360042;30;58656707;-76
2022/05/12 07:30:07;;;;;;;;;5.00;5.00;;;;;;;;686687;30;72017724;-79
2022/05/12 07:38:22;;;;;;;;;6.50;4.00;;;;;;;;2;260806857;260806857;-77
2022/05/12 07:45:55;;;;;;;;;2.50;2.50;;;;;;;;2;287950040;287950040;-78
2022/05/12 07:56:26;;;;;;;;;3.00;3.00;;;;;;;;440472;30;273747032;-77
2022/05/12 08:03:26;;;;;;;;;5.00;5.00;;;;;;;;2;259971649;259971649;-76
2022/05/12 08:06:08;;;;;;;;;11.00;2.00;;;;;;;;162649;30;56212763;-78
2022/05/12 08:08:34;;;;;;;;;7.50;6.50;;;;;;;;4567467;30;3980299;-76
2022/05/12 08:10:59;;;;;;;;;9.25;7.25;;;;;;;;4740891;30;29455;-77
2022/05/12 08:13:25;;;;;;;;;7.33;4.00;;;;;;;;3515163;30;24858790;-78
2022/05/12 08:15:51;;;;;;;;;5.00;3.50;;;;;;;;4475446;30;3435281;-77
2022/05/12 08:18:38;;;;;;;;;;;;;;;;;;1681121;30;108057298;-77
2022/05/12 08:21:47;;;;;;;;;5.50;3.00;;;;;;;;2276442;30;111071201;-78
2022/05/12 08:24:41;;;;;;;;;0.50;0.50;;;;;;;;680126;30;118702481;-77
2022/05/12 08:27:07;;;;;;;;;5.50;4.00;;;;;;;;4715469;30;29609;-77
2022/05/12 08:29:32;;;;;;;;;5.00;2.75;;;;;;;;4718411;30;30195;-77
2022/05/12 08:31:58;;;;;;;;;4.00;3.25;;;;;;;;4731391;30;115244;-77
2022/05/12 08:34:23;;;;;;;;;4.00;4.00;;;;;;;;4734869;30;29334;-77
2022/05/12 08:36:54;;;;;;;;;3.50;2.75;;;;;;;;4732155;30;29718;-77
2022/05/12 08:39:19;;;;;;;;;7.75;4.75;;;;;;;;4716384;30;29933;-76
2022/05/12 08:41:51;;;;;;;;;6.50;4.50;;;;;;;;4145851;30;11940859;-77
2022/05/12 08:44:19;;;;;;;;;4.00;3.50;;;;;;;;3915298;30;19073592;-77
2022/05/12 08:49:28;;;;;;;;;;;;;;;;;;2974812;30;212143725;-77
2022/05/12 08:53:13;;;;;;;;;1.00;1.00;;;;;;;;652914;30;183213790;-76
2022/05/12 08:55:50;;;;;;;;;5.50;3.50;;;;;;;;4730841;30;29704;-76
2022/05/12 08:58:23;;;;;;;;;3.50;2.25;;;;;;;;4734297;30;29283;-76
2022/05/12 09:00:58;;;;;;;;;2.50;2.25;;;;;;;;4717698;30;29372;-76
2022/05/12 09:03:31;;;;;;;;;7.50;4.25;;;;;;;;4718361;30;29633;-75
2022/05/12 09:06:02;;;;;;;;;3.75;2.25;;;;;;;;4717648;30;31197;-76
2022/05/12 09:10:10;;;;;;;;;;;;;;;;;;2450706;30;153653303;-75
2022/05/12 09:18:15;;;;;;;;;1.50;1.50;;;;;;;;151707;30;187906118;-75
2022/05/12 09:27:15;;;;;;;;;1.00;1.00;;;;;;;;2;279080787;279080787;-75
2022/05/12 09:35:59;;;;;;;;;1.00;1.00;;;;;;;;2;234071668;234071668;-76
2022/05/12 09:40:54;;;;;;;;;2.00;2.00;;;;;;;;2;279082331;279082331;-76
2022/05/12 09:49:38;;;;;;;;;1.00;1.00;;;;;;;;2;234068655;234068655;-76
2022/05/12 09:56:27;;;;;;;;;3.00;3.00;;;;;;;;3;76241052;97040880;-77
2022/05/12 10:14:33;;;;;;;;;7.50;0.50;;;;;;;;2;261074965;261074965;-77
2022/05/12 10:24:13;;;;;;;;;3.00;3.00;;;;;;;;2;288081851;288081851;-77
2022/05/12 10:32:28;;;;;;;;;1.50;1.50;;;;;;;;2;261076537;261076537;-75
2022/05/12 10:41:56;;;;;;;;;2.50;2.50;;;;;;;;2;288082877;288082877;-75
2022/05/12 10:44:24;;;;;;;;;0.50;0.50;;;;;;;;1276238;30;54559624;-75
2022/05/12 10:51:29;;;;;;;;;;;;;;;;;;3595645;30;261075308;-75
2022/05/12 11:02:03;;;;;;;;;0.50;0.50;;;;;;;;1889038;30;279079584;-76
2022/05/12 11:11:02;;;;;;;;;1.50;1.50;;;;;;;;2;234071227;234071227;-71
2022/05/12 11:20:19;;;;;;;;;1.00;1.00;;;;;;;;2;279080005;279080005;-75
2022/05/12 11:38:37;;;;;;;;;1.50;1.50;;;;;;;;2;279078848;279078848;-77
2022/05/12 11:47:23;;;;;;;;;1.00;1.00;;;;;;;;2;234068974;234068974;-76
2022/05/12 11:56:42;;;;;;;;;4.00;4.00;;;;;;;;2;279082510;279082510;-77
2022/05/12 12:05:31;;;;;;;;;1.50;1.50;;;;;;;;2;234069655;234069655;-76
2022/05/12 12:14:47;;;;;;;;;0.50;0.50;;;;;;;;2;279081409;279081409;-76
2022/05/12 12:23:36;;;;;;;;;5.00;5.00;;;;;;;;2;234069706;234069706;-77
2022/05/12 12:28:35;;;;;;;;;2.50;2.00;;;;;;;;189383;30;139156255;-77
2022/05/12 12:31:05;;;;;;;;;3.00;1.00;;;;;;;;2828474;30;58352686;-76
2022/05/12 12:33:35;;;;;;;;;3.25;1.50;;;;;;;;4719238;30;29409;-77
2022/05/12 12:36:34;;;;;;;;;0.00;0.00;;;;;;;;2940820;30;45209922;-77
2022/05/12 12:38:59;;;;;;;;;2.75;2.75;;;;;;;;1497226;30;29958723;-77
2022/05/12 12:48:34;;;;;;;;;;;;;;;;;;1704592;30;234065860;-77
2022/05/12 12:57:48;;;;;;;;;0.50;0.50;;;;;;;;2;279077718;279077718;-79
2022/05/12 13:06:36;;;;;;;;;2.00;2.00;;;;;;;;2;234068415;234068415;-78
2022/05/12 13:15:39;;;;;;;;;4.00;4.00;;;;;;;;2;279082274;279082274;-78
2022/05/12 13:24:28;;;;;;;;;1.00;1.00;;;;;;;;2;234067166;234067166;-76
2022/05/12 13:33:30;;;;;;;;;2.00;2.00;;;;;;;;2;279084456;279084456;-77
2022/05/12 13:42:14;;;;;;;;;0.50;0.50;;;;;;;;2;234069301;234069301;-77
2022/05/12 13:51:35;;;;;;;;;1.50;1.50;;;;;;;;2;279081929;279081929;-78
2022/05/12 14:00:39;;;;;;;;;1.00;1.00;;;;;;;;2;234066022;234066022;-77
2022/05/12 14:09:51;;;;;;;;;2.50;2.50;;;;;;;;2;279083449;279083449;-81
2022/05/12 14:28:32;;;;;;;;;1.50;1.50;;;;;;;;2286803;30;288083038;-78
2022/05/12 14:35:05;;;;;;;;;1.00;1.00;;;;;;;;163137;30;217932990;-80
2022/05/12 14:39:43;;;;;;;;;1.50;1.50;;;;;;;;1632979;30;152740650;-81
2022/05/12 14:42:08;;;;;;;;;1.75;1.75;;;;;;;;3900742;30;25104727;-79
2022/05/12 14:44:33;;;;;;;;;2.00;2.00;;;;;;;;4736098;30;35177;-79
2022/05/12 14:47:01;;;;;;;;;2.50;1.00;;;;;;;;4730202;30;29372;-78
2022/05/12 14:49:37;;;;;;;;;2.75;1.75;;;;;;;;4715364;30;662807;-78
2022/05/12 14:52:06;;;;;;;;;2.00;1.00;;;;;;;;4725009;30;29502;-78
2022/05/12 14:54:32;;;;;;;;;2.00;2.00;;;;;;;;4720034;30;29481;-77
2022/05/12 14:56:58;;;;;;;;;;;;;;;;;;2441450;30;70526482;-77
2022/05/12 15:01:50;;;;;;;;;1.00;1.00;;;;;;;;1464102;30;172587765;-78
2022/05/12 15:05:14;;;;;;;;;6.00;2.00;;;;;;;;2790004;30;40310745;-76
2022/05/12 15:07:50;;;;;;;;;;;;;;;;;;814257;30;130148882;-75
2022/05/12 15:15:40;;;;;;;;;0.00;0.00;;;;;;;;320662;30;288083283;-78
2022/05/12 15:23:56;;;;;;;;;0.50;0.50;;;;;;;;2;261076400;261076400;-79
2022/05/12 15:33:22;;;;;;;;;10.50;1.50;;;;;;;;2;286714797;286714797;-78
2022/05/12 15:41:39;;;;;;;;;0.00;0.00;;;;;;;;2;261077338;261077338;-79
2022/05/12 15:51:06;;;;;;;;;0.50;0.50;;;;;;;;2;288082488;288082488;-78
2022/05/12 15:59:22;;;;;;;;;0.50;0.50;;;;;;;;2;261074894;261074894;-79
2022/05/12 16:08:49;;;;;;;;;1.50;1.50;;;;;;;;2;288085061;288085061;-77
2022/05/12 16:17:05;;;;;;;;;2.50;2.50;;;;;;;;2;261077688;261077688;-79
2022/05/12 16:26:34;;;;;;;;;1.50;1.50;;;;;;;;2;288083614;288083614;-78
2022/05/12 16:34:51;;;;;;;;;1.00;1.00;;;;;;;;2;261080265;261080265;-78
2022/05/12 16:44:18;;;;;;;;;3.00;3.00;;;;;;;;2;288084115;288084115;-78
2022/05/12 16:52:33;;;;;;;;;1.00;1.00;;;;;;;;2;261074935;261074935;-78
2022/05/12 17:02:02;;;;;;;;;13.00;1.00;;;;;;;;2;288084176;288084176;-76
2022/05/12 17:10:17;;;;;;;;;4.50;4.50;;;;;;;;2;261077324;261077324;-76
2022/05/12 17:19:45;;;;;;;;;1.50;1.50;;;;;;;;2;288084878;288084878;-76
2022/05/12 17:28:00;;;;;;;;;0.50;0.50;;;;;;;;2;261077228;261077228;-75
2022/05/12 17:36:42;;;;;;;;;1.00;1.00;;;;;;;;2;288086561;288086561;-75
2022/05/12 17:45:29;;;;;;;;;3.00;0.00;;;;;;;;162490;30;234070183;-76
2022/05/12 17:54:31;;;;;;;;;1.00;1.00;;;;;;;;2;279078539;279078539;-75
2022/05/12 18:03:14;;;;;;;;;8.00;0.50;;;;;;;;2;234070797;234070797;-75
2022/05/12 18:12:14;;;;;;;;;0.50;0.50;;;;;;;;2;279081186;279081186;-75
2022/05/12 18:20:57;;;;;;;;;0.00;0.00;;;;;;;;2;234071238;234071238;-75
2022/05/12 18:29:57;;;;;;;;;1.50;1.50;;;;;;;;2;279079111;279079111;-76
2022/05/12 18:38:40;;;;;;;;;1.00;1.00;;;;;;;;2;234070680;234070680;-76
2022/05/12 18:47:41;;;;;;;;;9.50;0.50;;;;;;;;2;279083637;279083637;-77
2022/05/12 18:56:24;;;;;;;;;0.00;0.00;;;;;;;;2;234068796;234068796;-78
2022/05/12 19:00:46;;;;;;;;;2.00;2.00;;;;;;;;2;261761207;261761207;-78
2022/05/12 19:03:11;;;;;;;;;3.00;2.00;;;;;;;;4730157;30;46314;-78
2022/05/12 19:05:38;;;;;;;;;1.50;1.50;;;;;;;;4009120;30;9147792;-78
2022/05/12 19:08:04;;;;;;;;;3.00;3.00;;;;;;;;2014970;30;52222555;-79
2022/05/12 19:10:29;;;;;;;;;1.00;1.00;;;;;;;;4272270;30;14240277;-77
2022/05/12 19:20:19;;;;;;;;;;;;;;;;;;1982772;30;234068517;-77
2022/05/12 19:29:19;;;;;;;;;1.50;1.50;;;;;;;;2;279079601;279079601;-76
2022/05/12 19:39:44;;;;;;;;;3.50;3.50;;;;;;;;163812;29;279079385;-76
2022/05/12 19:48:26;;;;;;;;;0.50;0.50;;;;;;;;2;234069862;234069862;-75
2022/05/12 19:57:27;;;;;;;;;1.50;1.50;;;;;;;;2;279083385;279083385;-77
2022/05/12 20:06:10;;;;;;;;;3.00;3.00;;;;;;;;2;234070954;234070954;-77
2022/05/12 20:15:11;;;;;;;;;3.50;3.50;;;;;;;;2;279081468;279081468;-77
2022/05/12 20:23:58;;;;;;;;;1.50;1.50;;;;;;;;2;234067672;234067672;-77
2022/05/12 20:33:02;;;;;;;;;3.00;3.00;;;;;;;;2;279076793;279076793;-78
2022/05/12 20:41:45;;;;;;;;;3.50;3.50;;;;;;;;2;234071717;234071717;-76
2022/05/12 20:46:22;;;;;;;;;3.00;3.00;;;;;;;;2;276271281;276271281;-77
2022/05/12 20:55:09;;;;;;;;;2.00;2.00;;;;;;;;141703;30;234068053;-74
2022/05/12 21:04:10;;;;;;;;;2.00;2.00;;;;;;;;2;279080864;279080864;-77
2022/05/12 21:12:52;;;;;;;;;1.00;1.00;;;;;;;;2;234069588;234069588;-78
2022/05/12 21:21:53;;;;;;;;;1.50;1.50;;;;;;;;2;279084780;279084780;-78
2022/05/12 21:30:36;;;;;;;;;3.50;3.50;;;;;;;;2;234069612;234069612;-77
2022/05/12 21:39:37;;;;;;;;;3.00;3.00;;;;;;;;2;279079836;279079836;-77
2022/05/12 21:48:19;;;;;;;;;4.00;4.00;;;;;;;;2;234071462;234071462;-78
2022/05/12 22:06:21;;;;;;;;;1.00;1.00;;;;;;;;2;234069804;234069804;-79
2022/05/12 22:15:22;;;;;;;;;14.50;2.50;;;;;;;;2;279081712;279081712;-78
2022/05/12 22:24:05;;;;;;;;;2.50;2.50;;;;;;;;2;234068673;234068673;-78
2022/05/12 22:33:07;;;;;;;;;1.50;1.50;;;;;;;;2;279081381;279081381;-79
2022/05/12 22:41:49;;;;;;;;;4.00;1.00;;;;;;;;2;234069311;234069311;-79
2022/05/12 22:50:50;;;;;;;;;0.00;0.00;;;;;;;;2;279081856;279081856;-79
2022/05/12 22:59:33;;;;;;;;;4.00;4.00;;;;;;;;2;234068285;234068285;-81
2022/05/12 23:08:34;;;;;;;;;1.00;1.00;;;;;;;;2;279082585;279082585;-80
2022/05/12 23:17:16;;;;;;;;;1.50;1.50;;;;;;;;2;234069380;234069380;-80
2022/05/12 23:26:16;;;;;;;;;0.00;0.00;;;;;;;;2;279082882;279082882;-80
2022/05/12 23:34:59;;;;;;;;;1.50;1.50;;;;;;;;2;234073037;234073037;-80
2022/05/12 23:44:00;;;;;;;;;5.50;1.50;;;;;;;;2;279082557;279082557;-80
2022/05/12 23:52:42;;;;;;;;;1.00;1.00;;;;;;;;2;234069703;234069703;-80
